sensor_id;sensor_type;location;lat;lon;timestamp;P1;durP1;ratioP1;P2;durP2;ratioP2
58685;SDS011;44465;53.206;-6.106;2023-06-04T00:01:21;6.55;;;2.90;;
58685;SDS011;44465;53.206;-6.106;2023-06-04T00:03:47;5.50;;;3.08;;
58685;SDS011;44465;53.206;-6.106;2023-06-04T00:06:12;7.03;;;3.20;;
58685;SDS011;44465;53.206;-6.106;2023-06-04T00:08:38;6.40;;;2.90;;
58685;SDS011;44465;53.206;-6.106;2023-06-04T00:11:03;6.70;;;3.28;;
58685;SDS011;44465;53.206;-6.106;2023-06-04T00:13:29;5.15;;;3.13;;
58685;SDS011;44465;53.206;-6.106;2023-06-04T00:15:54;5.85;;;2.95;;
58685;SDS011;44465;53.206;-6.106;2023-06-04T00:18:20;4.68;;;3.30;;
58685;SDS011;44465;53.206;-6.106;2023-06-04T00:20:45;4.97;;;2.90;;
58685;SDS011;44465;53.206;-6.106;2023-06-04T00:23:11;5.80;;;2.70;;
58685;SDS011;44465;53.206;-6.106;2023-06-04T00:25:36;7.57;;;3.10;;
58685;SDS011;44465;53.206;-6.106;2023-06-04T00:28:02;6.53;;;3.15;;
58685;SDS011;44465;53.206;-6.106;2023-06-04T00:30:27;6.15;;;2.75;;
58685;SDS011;44465;53.206;-6.106;2023-06-04T00:32:53;5.07;;;2.83;;
58685;SDS011;44465;53.206;-6.106;2023-06-04T00:35:18;6.28;;;2.88;;
58685;SDS011;44465;53.206;-6.106;2023-06-04T00:37:45;7.32;;;3.00;;
58685;SDS011;44465;53.206;-6.106;2023-06-04T00:40:11;4.05;;;2.78;;
58685;SDS011;44465;53.206;-6.106;2023-06-04T00:42:37;4.65;;;2.78;;
58685;SDS011;44465;53.206;-6.106;2023-06-04T00:45:03;4.70;;;2.78;;
58685;SDS011;44465;53.206;-6.106;2023-06-04T00:47:34;5.20;;;2.70;;
58685;SDS011;44465;53.206;-6.106;2023-06-04T00:50:00;8.05;;;2.80;;
58685;SDS011;44465;53.206;-6.106;2023-06-04T00:52:26;2.80;;;2.47;;
58685;SDS011;44465;53.206;-6.106;2023-06-04T00:54:52;6.38;;;2.30;;
58685;SDS011;44465;53.206;-6.106;2023-06-04T00:57:20;4.28;;;2.60;;
58685;SDS011;44465;53.206;-6.106;2023-06-04T00:59:48;4.03;;;2.40;;
58685;SDS011;44465;53.206;-6.106;2023-06-04T01:02:16;4.25;;;2.50;;
58685;SDS011;44465;53.206;-6.106;2023-06-04T01:07:23;3.88;;;2.40;;
58685;SDS011;44465;53.206;-6.106;2023-06-04T01:09:53;4.50;;;3.05;;
58685;SDS011;44465;53.206;-6.106;2023-06-04T01:12:19;4.38;;;2.30;;
58685;SDS011;44465;53.206;-6.106;2023-06-04T01:14:44;5.47;;;2.75;;
58685;SDS011;44465;53.206;-6.106;2023-06-04T01:17:30;4.50;;;2.47;;
58685;SDS011;44465;53.206;-6.106;2023-06-04T01:25:33;4.97;;;2.60;;
58685;SDS011;44465;53.206;-6.106;2023-06-04T01:27:59;2.85;;;2.03;;
58685;SDS011;44465;53.206;-6.106;2023-06-04T01:30:30;3.10;;;2.65;;
58685;SDS011;44465;53.206;-6.106;2023-06-04T01:32:58;4.38;;;2.42;;
58685;SDS011;44465;53.206;-6.106;2023-06-04T01:35:26;4.22;;;2.40;;
58685;SDS011;44465;53.206;-6.106;2023-06-04T01:37:52;4.53;;;2.45;;
58685;SDS011;44465;53.206;-6.106;2023-06-04T01:40:19;5.47;;;2.67;;
58685;SDS011;44465;53.206;-6.106;2023-06-04T01:42:45;4.13;;;2.80;;
58685;SDS011;44465;53.206;-6.106;2023-06-04T01:45:10;2.40;;;2.17;;
58685;SDS011;44465;53.206;-6.106;2023-06-04T01:47:36;4.05;;;2.15;;
58685;SDS011;44465;53.206;-6.106;2023-06-04T01:50:06;3.85;;;2.70;;
58685;SDS011;44465;53.206;-6.106;2023-06-04T01:52:35;4.45;;;2.35;;
58685;SDS011;44465;53.206;-6.106;2023-06-04T01:55:02;2.85;;;2.28;;
58685;SDS011;44465;53.206;-6.106;2023-06-04T01:57:33;3.90;;;2.35;;
58685;SDS011;44465;53.206;-6.106;2023-06-04T01:59:59;4.13;;;2.40;;
58685;SDS011;44465;53.206;-6.106;2023-06-04T02:02:25;4.55;;;2.42;;
58685;SDS011;44465;53.206;-6.106;2023-06-04T02:04:51;2.20;;;1.95;;
58685;SDS011;44465;53.206;-6.106;2023-06-04T02:07:18;3.72;;;2.38;;
58685;SDS011;44465;53.206;-6.106;2023-06-04T02:09:47;2.75;;;2.20;;
58685;SDS011;44465;53.206;-6.106;2023-06-04T02:12:13;3.40;;;2.35;;
58685;SDS011;44465;53.206;-6.106;2023-06-04T02:14:40;3.92;;;2.17;;
58685;SDS011;44465;53.206;-6.106;2023-06-04T02:17:07;3.83;;;2.30;;
58685;SDS011;44465;53.206;-6.106;2023-06-04T02:19:40;2.28;;;2.00;;
58685;SDS011;44465;53.206;-6.106;2023-06-04T02:22:13;3.20;;;2.25;;
58685;SDS011;44465;53.206;-6.106;2023-06-04T02:24:40;4.97;;;2.50;;
58685;SDS011;44465;53.206;-6.106;2023-06-04T02:27:09;2.30;;;2.10;;
58685;SDS011;44465;53.206;-6.106;2023-06-04T02:29:35;2.53;;;2.10;;
58685;SDS011;44465;53.206;-6.106;2023-06-04T02:32:01;3.38;;;2.40;;
58685;SDS011;44465;53.206;-6.106;2023-06-04T02:34:27;5.15;;;2.60;;
58685;SDS011;44465;53.206;-6.106;2023-06-04T02:36:53;5.90;;;2.35;;
58685;SDS011;44465;53.206;-6.106;2023-06-04T02:39:19;2.85;;;2.55;;
58685;SDS011;44465;53.206;-6.106;2023-06-04T02:41:45;2.35;;;2.15;;
58685;SDS011;44465;53.206;-6.106;2023-06-04T02:44:10;3.08;;;2.30;;
58685;SDS011;44465;53.206;-6.106;2023-06-04T02:46:37;3.63;;;2.00;;
58685;SDS011;44465;53.206;-6.106;2023-06-04T02:49:03;3.08;;;2.30;;
58685;SDS011;44465;53.206;-6.106;2023-06-04T02:51:29;2.80;;;2.25;;
58685;SDS011;44465;53.206;-6.106;2023-06-04T02:53:54;3.13;;;2.28;;
58685;SDS011;44465;53.206;-6.106;2023-06-04T02:56:20;3.30;;;2.00;;
58685;SDS011;44465;53.206;-6.106;2023-06-04T02:58:52;2.28;;;2.00;;
58685;SDS011;44465;53.206;-6.106;2023-06-04T03:01:20;1.90;;;1.80;;
58685;SDS011;44465;53.206;-6.106;2023-06-04T03:03:46;2.83;;;2.17;;
58685;SDS011;44465;53.206;-6.106;2023-06-04T03:06:12;3.28;;;2.17;;
58685;SDS011;44465;53.206;-6.106;2023-06-04T03:08:41;2.65;;;1.95;;
58685;SDS011;44465;53.206;-6.106;2023-06-04T03:11:07;4.32;;;2.28;;
58685;SDS011;44465;53.206;-6.106;2023-06-04T03:13:32;2.63;;;2.15;;
58685;SDS011;44465;53.206;-6.106;2023-06-04T03:15:58;2.67;;;2.05;;
58685;SDS011;44465;53.206;-6.106;2023-06-04T03:18:27;3.25;;;2.10;;
58685;SDS011;44465;53.206;-6.106;2023-06-04T03:20:56;2.30;;;2.00;;
58685;SDS011;44465;53.206;-6.106;2023-06-04T03:23:21;2.70;;;1.95;;
58685;SDS011;44465;53.206;-6.106;2023-06-04T03:25:47;2.50;;;2.20;;
58685;SDS011;44465;53.206;-6.106;2023-06-04T03:28:13;3.05;;;2.00;;
58685;SDS011;44465;53.206;-6.106;2023-06-04T03:30:40;3.53;;;1.80;;
58685;SDS011;44465;53.206;-6.106;2023-06-04T03:33:06;2.28;;;1.98;;
58685;SDS011;44465;53.206;-6.106;2023-06-04T03:35:33;2.60;;;2.03;;
58685;SDS011;44465;53.206;-6.106;2023-06-04T03:37:59;2.10;;;1.90;;
58685;SDS011;44465;53.206;-6.106;2023-06-04T03:40:25;1.98;;;1.85;;
58685;SDS011;44465;53.206;-6.106;2023-06-04T03:42:51;3.28;;;2.13;;
58685;SDS011;44465;53.206;-6.106;2023-06-04T03:47:45;2.85;;;1.70;;
58685;SDS011;44465;53.206;-6.106;2023-06-04T03:50:11;2.85;;;2.20;;
58685;SDS011;44465;53.206;-6.106;2023-06-04T03:52:37;3.13;;;1.83;;
58685;SDS011;44465;53.206;-6.106;2023-06-04T03:55:04;2.22;;;1.92;;
58685;SDS011;44465;53.206;-6.106;2023-06-04T03:57:29;2.40;;;2.00;;
58685;SDS011;44465;53.206;-6.106;2023-06-04T03:59:55;1.92;;;1.80;;
58685;SDS011;44465;53.206;-6.106;2023-06-04T04:02:21;2.30;;;1.88;;
58685;SDS011;44465;53.206;-6.106;2023-06-04T04:04:47;2.20;;;1.95;;
58685;SDS011;44465;53.206;-6.106;2023-06-04T04:07:13;2.00;;;1.80;;
58685;SDS011;44465;53.206;-6.106;2023-06-04T04:09:40;3.42;;;2.17;;
58685;SDS011;44465;53.206;-6.106;2023-06-04T04:12:06;3.67;;;1.90;;
58685;SDS011;44465;53.206;-6.106;2023-06-04T04:14:32;1.95;;;1.77;;
58685;SDS011;44465;53.206;-6.106;2023-06-04T04:16:58;2.75;;;1.80;;
58685;SDS011;44465;53.206;-6.106;2023-06-04T04:19:25;3.28;;;2.03;;
58685;SDS011;44465;53.206;-6.106;2023-06-04T04:21:51;2.45;;;2.10;;
58685;SDS011;44465;53.206;-6.106;2023-06-04T04:24:25;2.50;;;2.00;;
58685;SDS011;44465;53.206;-6.106;2023-06-04T04:26:53;2.67;;;2.40;;
58685;SDS011;44465;53.206;-6.106;2023-06-04T04:29:22;2.33;;;2.00;;
58685;SDS011;44465;53.206;-6.106;2023-06-04T04:31:53;1.98;;;1.88;;
58685;SDS011;44465;53.206;-6.106;2023-06-04T04:34:22;1.85;;;1.70;;
58685;SDS011;44465;53.206;-6.106;2023-06-04T04:36:51;1.90;;;1.80;;
58685;SDS011;44465;53.206;-6.106;2023-06-04T04:39:22;2.00;;;1.80;;
58685;SDS011;44465;53.206;-6.106;2023-06-04T04:41:49;2.28;;;1.67;;
58685;SDS011;44465;53.206;-6.106;2023-06-04T04:44:16;2.17;;;1.98;;
58685;SDS011;44465;53.206;-6.106;2023-06-04T04:46:41;3.38;;;1.90;;
58685;SDS011;44465;53.206;-6.106;2023-06-04T04:49:07;2.20;;;2.00;;
58685;SDS011;44465;53.206;-6.106;2023-06-04T04:51:33;2.20;;;2.00;;
58685;SDS011;44465;53.206;-6.106;2023-06-04T04:53:58;2.85;;;2.17;;
58685;SDS011;44465;53.206;-6.106;2023-06-04T04:56:29;1.98;;;1.70;;
58685;SDS011;44465;53.206;-6.106;2023-06-04T04:58:58;2.20;;;2.00;;
58685;SDS011;44465;53.206;-6.106;2023-06-04T05:01:23;2.15;;;1.63;;
58685;SDS011;44465;53.206;-6.106;2023-06-04T05:03:50;2.85;;;1.90;;
58685;SDS011;44465;53.206;-6.106;2023-06-04T05:06:16;2.25;;;2.03;;
58685;SDS011;44465;53.206;-6.106;2023-06-04T05:08:43;2.10;;;1.90;;
58685;SDS011;44465;53.206;-6.106;2023-06-04T05:11:09;1.98;;;1.85;;
58685;SDS011;44465;53.206;-6.106;2023-06-04T05:13:35;2.80;;;2.00;;
58685;SDS011;44465;53.206;-6.106;2023-06-04T05:16:03;2.28;;;2.08;;
58685;SDS011;44465;53.206;-6.106;2023-06-04T05:18:32;2.25;;;2.00;;
58685;SDS011;44465;53.206;-6.106;2023-06-04T05:21:01;3.17;;;2.15;;
58685;SDS011;44465;53.206;-6.106;2023-06-04T05:23:29;2.30;;;1.90;;
58685;SDS011;44465;53.206;-6.106;2023-06-04T05:26:02;2.38;;;1.90;;
58685;SDS011;44465;53.206;-6.106;2023-06-04T05:28:28;2.55;;;1.90;;
58685;SDS011;44465;53.206;-6.106;2023-06-04T05:30:55;2.30;;;1.90;;
58685;SDS011;44465;53.206;-6.106;2023-06-04T05:33:26;1.80;;;1.70;;
58685;SDS011;44465;53.206;-6.106;2023-06-04T05:35:57;2.92;;;1.70;;
58685;SDS011;44465;53.206;-6.106;2023-06-04T05:38:26;1.85;;;1.75;;
58685;SDS011;44465;53.206;-6.106;2023-06-04T05:40:56;1.97;;;1.83;;
58685;SDS011;44465;53.206;-6.106;2023-06-04T05:43:23;1.85;;;1.70;;
58685;SDS011;44465;53.206;-6.106;2023-06-04T05:45:49;2.17;;;1.75;;
58685;SDS011;44465;53.206;-6.106;2023-06-04T05:48:16;2.40;;;2.20;;
58685;SDS011;44465;53.206;-6.106;2023-06-04T05:50:42;3.25;;;1.90;;
58685;SDS011;44465;53.206;-6.106;2023-06-04T05:53:07;2.97;;;2.20;;
58685;SDS011;44465;53.206;-6.106;2023-06-04T05:55:33;2.80;;;2.17;;
58685;SDS011;44465;53.206;-6.106;2023-06-04T05:57:59;2.42;;;1.88;;
58685;SDS011;44465;53.206;-6.106;2023-06-04T06:00:25;2.10;;;1.88;;
58685;SDS011;44465;53.206;-6.106;2023-06-04T06:02:51;2.35;;;1.92;;
58685;SDS011;44465;53.206;-6.106;2023-06-04T06:05:30;2.00;;;1.90;;
58685;SDS011;44465;53.206;-6.106;2023-06-04T06:07:55;2.25;;;2.03;;
58685;SDS011;44465;53.206;-6.106;2023-06-04T06:10:21;2.33;;;2.10;;
58685;SDS011;44465;53.206;-6.106;2023-06-04T06:12:47;2.92;;;1.73;;
58685;SDS011;44465;53.206;-6.106;2023-06-04T06:15:12;2.15;;;1.95;;
58685;SDS011;44465;53.206;-6.106;2023-06-04T06:17:39;2.38;;;2.08;;
58685;SDS011;44465;53.206;-6.106;2023-06-04T06:20:05;4.28;;;2.30;;
58685;SDS011;44465;53.206;-6.106;2023-06-04T06:22:32;2.08;;;1.88;;
58685;SDS011;44465;53.206;-6.106;2023-06-04T06:24:58;3.13;;;2.00;;
58685;SDS011;44465;53.206;-6.106;2023-06-04T06:27:24;2.05;;;1.85;;
58685;SDS011;44465;53.206;-6.106;2023-06-04T06:29:50;2.10;;;1.90;;
58685;SDS011;44465;53.206;-6.106;2023-06-04T06:32:16;2.35;;;1.70;;
58685;SDS011;44465;53.206;-6.106;2023-06-04T06:34:41;2.00;;;1.80;;
58685;SDS011;44465;53.206;-6.106;2023-06-04T06:37:07;4.00;;;2.20;;
58685;SDS011;44465;53.206;-6.106;2023-06-04T06:39:33;1.77;;;1.67;;
58685;SDS011;44465;53.206;-6.106;2023-06-04T06:41:58;2.40;;;2.03;;
58685;SDS011;44465;53.206;-6.106;2023-06-04T06:44:28;2.70;;;1.90;;
58685;SDS011;44465;53.206;-6.106;2023-06-04T06:46:54;2.00;;;1.80;;
58685;SDS011;44465;53.206;-6.106;2023-06-04T06:49:19;2.55;;;1.90;;
58685;SDS011;44465;53.206;-6.106;2023-06-04T06:51:45;2.17;;;1.95;;
58685;SDS011;44465;53.206;-6.106;2023-06-04T06:54:10;2.38;;;2.13;;
58685;SDS011;44465;53.206;-6.106;2023-06-04T06:56:39;2.42;;;1.77;;
58685;SDS011;44465;53.206;-6.106;2023-06-04T06:59:05;2.90;;;2.15;;
58685;SDS011;44465;53.206;-6.106;2023-06-04T07:01:30;2.08;;;1.88;;
58685;SDS011;44465;53.206;-6.106;2023-06-04T07:03:57;2.72;;;1.98;;
58685;SDS011;44465;53.206;-6.106;2023-06-04T07:06:23;2.28;;;2.03;;
58685;SDS011;44465;53.206;-6.106;2023-06-04T07:08:48;3.22;;;1.90;;
58685;SDS011;44465;53.206;-6.106;2023-06-04T07:11:14;2.38;;;2.00;;
58685;SDS011;44465;53.206;-6.106;2023-06-04T07:13:41;2.03;;;1.90;;
58685;SDS011;44465;53.206;-6.106;2023-06-04T07:16:07;2.35;;;1.98;;
58685;SDS011;44465;53.206;-6.106;2023-06-04T07:18:33;2.53;;;1.60;;
58685;SDS011;44465;53.206;-6.106;2023-06-04T07:20:58;2.20;;;2.00;;
58685;SDS011;44465;53.206;-6.106;2023-06-04T07:23:24;2.00;;;1.90;;
58685;SDS011;44465;53.206;-6.106;2023-06-04T07:25:49;2.30;;;2.10;;
58685;SDS011;44465;53.206;-6.106;2023-06-04T07:28:15;1.88;;;1.77;;
58685;SDS011;44465;53.206;-6.106;2023-06-04T07:30:41;2.10;;;1.90;;
58685;SDS011;44465;53.206;-6.106;2023-06-04T07:33:06;2.38;;;2.17;;
58685;SDS011;44465;53.206;-6.106;2023-06-04T07:35:32;3.08;;;1.98;;
58685;SDS011;44465;53.206;-6.106;2023-06-04T07:37:57;3.42;;;2.03;;
58685;SDS011;44465;53.206;-6.106;2023-06-04T07:40:23;2.08;;;1.83;;
58685;SDS011;44465;53.206;-6.106;2023-06-04T07:42:48;2.28;;;2.08;;
58685;SDS011;44465;53.206;-6.106;2023-06-04T07:45:14;3.05;;;2.03;;
58685;SDS011;44465;53.206;-6.106;2023-06-04T07:47:40;1.77;;;1.67;;
58685;SDS011;44465;53.206;-6.106;2023-06-04T07:50:06;3.17;;;2.53;;
58685;SDS011;44465;53.206;-6.106;2023-06-04T07:52:32;2.67;;;2.30;;
58685;SDS011;44465;53.206;-6.106;2023-06-04T07:54:58;2.42;;;2.00;;
58685;SDS011;44465;53.206;-6.106;2023-06-04T07:57:24;2.03;;;1.77;;
58685;SDS011;44465;53.206;-6.106;2023-06-04T07:59:50;2.33;;;2.10;;
58685;SDS011;44465;53.206;-6.106;2023-06-04T08:02:16;1.92;;;1.80;;
58685;SDS011;44465;53.206;-6.106;2023-06-04T08:04:43;2.22;;;1.98;;
58685;SDS011;44465;53.206;-6.106;2023-06-04T08:07:10;1.75;;;1.65;;
58685;SDS011;44465;53.206;-6.106;2023-06-04T08:09:35;2.20;;;2.00;;
58685;SDS011;44465;53.206;-6.106;2023-06-04T08:12:01;2.13;;;1.92;;
58685;SDS011;44465;53.206;-6.106;2023-06-04T08:14:26;2.05;;;1.73;;
58685;SDS011;44465;53.206;-6.106;2023-06-04T08:16:52;3.50;;;1.92;;
58685;SDS011;44465;53.206;-6.106;2023-06-04T08:19:19;2.75;;;2.03;;
58685;SDS011;44465;53.206;-6.106;2023-06-04T08:21:44;2.35;;;2.15;;
58685;SDS011;44465;53.206;-6.106;2023-06-04T08:24:10;2.75;;;1.80;;
58685;SDS011;44465;53.206;-6.106;2023-06-04T08:26:36;2.30;;;1.80;;
58685;SDS011;44465;53.206;-6.106;2023-06-04T08:29:02;1.73;;;1.63;;
58685;SDS011;44465;53.206;-6.106;2023-06-04T08:31:31;2.95;;;2.10;;
58685;SDS011;44465;53.206;-6.106;2023-06-04T08:33:58;2.72;;;2.17;;
58685;SDS011;44465;53.206;-6.106;2023-06-04T08:36:23;2.67;;;1.75;;
58685;SDS011;44465;53.206;-6.106;2023-06-04T08:38:49;3.13;;;1.88;;
58685;SDS011;44465;53.206;-6.106;2023-06-04T08:41:17;2.63;;;1.98;;
58685;SDS011;44465;53.206;-6.106;2023-06-04T08:43:51;2.83;;;1.88;;
58685;SDS011;44465;53.206;-6.106;2023-06-04T08:46:20;1.95;;;1.83;;
58685;SDS011;44465;53.206;-6.106;2023-06-04T08:48:46;4.20;;;2.25;;
58685;SDS011;44465;53.206;-6.106;2023-06-04T08:51:14;3.10;;;2.00;;
58685;SDS011;44465;53.206;-6.106;2023-06-04T08:53:40;2.00;;;1.80;;
58685;SDS011;44465;53.206;-6.106;2023-06-04T08:56:07;1.73;;;1.60;;
58685;SDS011;44465;53.206;-6.106;2023-06-04T08:58:33;1.70;;;1.60;;
58685;SDS011;44465;53.206;-6.106;2023-06-04T09:01:01;2.17;;;1.58;;
58685;SDS011;44465;53.206;-6.106;2023-06-04T09:03:28;3.28;;;2.10;;
58685;SDS011;44465;53.206;-6.106;2023-06-04T09:05:58;1.73;;;1.63;;
58685;SDS011;44465;53.206;-6.106;2023-06-04T09:08:24;2.95;;;1.73;;
58685;SDS011;44465;53.206;-6.106;2023-06-04T09:10:55;2.15;;;1.95;;
58685;SDS011;44465;53.206;-6.106;2023-06-04T09:13:21;2.13;;;1.85;;
58685;SDS011;44465;53.206;-6.106;2023-06-04T09:15:58;3.03;;;2.38;;
58685;SDS011;44465;53.206;-6.106;2023-06-04T09:18:27;2.90;;;1.95;;
58685;SDS011;44465;53.206;-6.106;2023-06-04T09:21:06;2.10;;;1.90;;
58685;SDS011;44465;53.206;-6.106;2023-06-04T09:23:45;2.00;;;1.80;;
58685;SDS011;44465;53.206;-6.106;2023-06-04T09:26:12;3.38;;;2.10;;
58685;SDS011;44465;53.206;-6.106;2023-06-04T09:28:41;2.15;;;1.95;;
58685;SDS011;44465;53.206;-6.106;2023-06-04T09:31:13;3.20;;;1.95;;
58685;SDS011;44465;53.206;-6.106;2023-06-04T09:33:46;2.83;;;1.88;;
58685;SDS011;44465;53.206;-6.106;2023-06-04T09:36:13;2.03;;;1.83;;
58685;SDS011;44465;53.206;-6.106;2023-06-04T09:38:39;1.85;;;1.75;;
58685;SDS011;44465;53.206;-6.106;2023-06-04T09:41:11;2.03;;;1.80;;
58685;SDS011;44465;53.206;-6.106;2023-06-04T09:43:38;2.88;;;1.90;;
58685;SDS011;44465;53.206;-6.106;2023-06-04T09:46:10;3.17;;;1.80;;
58685;SDS011;44465;53.206;-6.106;2023-06-04T09:48:39;2.88;;;1.60;;
58685;SDS011;44465;53.206;-6.106;2023-06-04T09:51:13;3.30;;;1.70;;
58685;SDS011;44465;53.206;-6.106;2023-06-04T09:53:54;2.20;;;1.75;;
58685;SDS011;44465;53.206;-6.106;2023-06-04T09:56:21;2.10;;;1.80;;
58685;SDS011;44465;53.206;-6.106;2023-06-04T09:58:48;2.13;;;1.92;;
58685;SDS011;44465;53.206;-6.106;2023-06-04T10:01:14;2.10;;;1.90;;
58685;SDS011;44465;53.206;-6.106;2023-06-04T10:03:40;3.05;;;2.00;;
58685;SDS011;44465;53.206;-6.106;2023-06-04T10:06:11;3.22;;;1.90;;
58685;SDS011;44465;53.206;-6.106;2023-06-04T10:08:40;1.80;;;1.70;;
58685;SDS011;44465;53.206;-6.106;2023-06-04T10:16:47;4.75;;;2.40;;
58685;SDS011;44465;53.206;-6.106;2023-06-04T10:19:13;1.70;;;1.58;;
58685;SDS011;44465;53.206;-6.106;2023-06-04T10:21:40;1.85;;;1.60;;
58685;SDS011;44465;53.206;-6.106;2023-06-04T10:24:07;4.30;;;2.00;;
58685;SDS011;44465;53.206;-6.106;2023-06-04T10:26:33;1.88;;;1.70;;
58685;SDS011;44465;53.206;-6.106;2023-06-04T10:29:00;2.33;;;1.98;;
58685;SDS011;44465;53.206;-6.106;2023-06-04T10:31:27;2.30;;;1.70;;
58685;SDS011;44465;53.206;-6.106;2023-06-04T10:33:54;2.30;;;1.77;;
58685;SDS011;44465;53.206;-6.106;2023-06-04T10:36:21;2.10;;;1.90;;
58685;SDS011;44465;53.206;-6.106;2023-06-04T10:38:48;1.60;;;1.50;;
58685;SDS011;44465;53.206;-6.106;2023-06-04T10:41:14;2.22;;;1.90;;
58685;SDS011;44465;53.206;-6.106;2023-06-04T10:43:50;2.90;;;1.65;;
58685;SDS011;44465;53.206;-6.106;2023-06-04T10:46:18;1.83;;;1.65;;
58685;SDS011;44465;53.206;-6.106;2023-06-04T10:48:45;1.48;;;1.30;;
58685;SDS011;44465;53.206;-6.106;2023-06-04T10:51:12;3.83;;;2.22;;
58685;SDS011;44465;53.206;-6.106;2023-06-04T10:53:37;1.88;;;1.77;;
58685;SDS011;44465;53.206;-6.106;2023-06-04T10:56:03;3.08;;;2.08;;
58685;SDS011;44465;53.206;-6.106;2023-06-04T10:58:35;5.07;;;2.15;;
58685;SDS011;44465;53.206;-6.106;2023-06-04T11:01:00;4.80;;;2.00;;
58685;SDS011;44465;53.206;-6.106;2023-06-04T11:03:37;2.85;;;1.90;;
58685;SDS011;44465;53.206;-6.106;2023-06-04T11:06:14;6.70;;;2.03;;
58685;SDS011;44465;53.206;-6.106;2023-06-04T11:08:41;4.15;;;1.77;;
58685;SDS011;44465;53.206;-6.106;2023-06-04T11:11:10;3.17;;;2.00;;
58685;SDS011;44465;53.206;-6.106;2023-06-04T11:13:37;6.03;;;2.20;;
58685;SDS011;44465;53.206;-6.106;2023-06-04T11:16:03;4.43;;;1.90;;
58685;SDS011;44465;53.206;-6.106;2023-06-04T11:18:39;7.20;;;1.90;;
58685;SDS011;44465;53.206;-6.106;2023-06-04T11:21:05;3.03;;;2.00;;
58685;SDS011;44465;53.206;-6.106;2023-06-04T11:23:32;2.92;;;1.70;;
58685;SDS011;44465;53.206;-6.106;2023-06-04T11:25:58;11.27;;;2.13;;
58685;SDS011;44465;53.206;-6.106;2023-06-04T11:28:24;9.02;;;2.40;;
58685;SDS011;44465;53.206;-6.106;2023-06-04T11:30:56;2.85;;;1.80;;
58685;SDS011;44465;53.206;-6.106;2023-06-04T11:33:24;12.02;;;2.40;;
58685;SDS011;44465;53.206;-6.106;2023-06-04T11:35:50;6.07;;;2.60;;
58685;SDS011;44465;53.206;-6.106;2023-06-04T11:38:15;7.40;;;2.80;;
58685;SDS011;44465;53.206;-6.106;2023-06-04T11:40:41;12.65;;;3.08;;
58685;SDS011;44465;53.206;-6.106;2023-06-04T11:43:11;11.05;;;3.53;;
58685;SDS011;44465;53.206;-6.106;2023-06-04T11:45:38;4.55;;;2.45;;
58685;SDS011;44465;53.206;-6.106;2023-06-04T11:48:04;10.25;;;3.42;;
58685;SDS011;44465;53.206;-6.106;2023-06-04T11:50:30;8.75;;;3.45;;
58685;SDS011;44465;53.206;-6.106;2023-06-04T11:52:56;2.83;;;2.13;;
58685;SDS011;44465;53.206;-6.106;2023-06-04T11:55:22;8.13;;;3.00;;
58685;SDS011;44465;53.206;-6.106;2023-06-04T11:57:48;5.65;;;2.58;;
58685;SDS011;44465;53.206;-6.106;2023-06-04T12:00:15;10.93;;;2.53;;
58685;SDS011;44465;53.206;-6.106;2023-06-04T12:02:52;6.13;;;2.80;;
58685;SDS011;44465;53.206;-6.106;2023-06-04T12:05:18;5.97;;;2.55;;
58685;SDS011;44465;53.206;-6.106;2023-06-04T12:07:46;10.55;;;3.25;;
58685;SDS011;44465;53.206;-6.106;2023-06-04T12:10:18;8.23;;;2.85;;
58685;SDS011;44465;53.206;-6.106;2023-06-04T12:12:45;8.32;;;2.83;;
58685;SDS011;44465;53.206;-6.106;2023-06-04T12:15:11;6.78;;;2.60;;
58685;SDS011;44465;53.206;-6.106;2023-06-04T12:17:50;6.15;;;2.47;;
58685;SDS011;44465;53.206;-6.106;2023-06-04T12:20:16;8.50;;;2.60;;
58685;SDS011;44465;53.206;-6.106;2023-06-04T12:22:45;6.32;;;2.60;;
58685;SDS011;44465;53.206;-6.106;2023-06-04T12:25:23;6.57;;;2.70;;
58685;SDS011;44465;53.206;-6.106;2023-06-04T12:27:50;6.30;;;2.85;;
58685;SDS011;44465;53.206;-6.106;2023-06-04T12:30:16;9.10;;;3.03;;
58685;SDS011;44465;53.206;-6.106;2023-06-04T12:32:42;7.88;;;2.58;;
58685;SDS011;44465;53.206;-6.106;2023-06-04T12:35:08;5.57;;;3.05;;
58685;SDS011;44465;53.206;-6.106;2023-06-04T12:37:34;6.05;;;2.63;;
58685;SDS011;44465;53.206;-6.106;2023-06-04T12:40:00;6.97;;;2.70;;
58685;SDS011;44465;53.206;-6.106;2023-06-04T12:42:25;4.18;;;2.75;;
58685;SDS011;44465;53.206;-6.106;2023-06-04T12:44:53;7.72;;;3.17;;
58685;SDS011;44465;53.206;-6.106;2023-06-04T12:47:18;7.07;;;3.05;;
58685;SDS011;44465;53.206;-6.106;2023-06-04T12:49:46;9.30;;;3.28;;
58685;SDS011;44465;53.206;-6.106;2023-06-04T12:52:11;13.95;;;2.70;;
58685;SDS011;44465;53.206;-6.106;2023-06-04T12:54:39;11.48;;;3.08;;
58685;SDS011;44465;53.206;-6.106;2023-06-04T12:57:05;9.95;;;3.40;;
58685;SDS011;44465;53.206;-6.106;2023-06-04T12:59:30;10.32;;;2.90;;
58685;SDS011;44465;53.206;-6.106;2023-06-04T13:01:56;9.50;;;2.97;;
58685;SDS011;44465;53.206;-6.106;2023-06-04T13:04:22;8.02;;;3.13;;
58685;SDS011;44465;53.206;-6.106;2023-06-04T13:06:51;6.05;;;2.70;;
58685;SDS011;44465;53.206;-6.106;2023-06-04T13:09:20;11.75;;;3.63;;
58685;SDS011;44465;53.206;-6.106;2023-06-04T13:11:48;8.80;;;3.67;;
58685;SDS011;44465;53.206;-6.106;2023-06-04T13:14:14;5.88;;;2.63;;
58685;SDS011;44465;53.206;-6.106;2023-06-04T13:16:39;11.63;;;3.63;;
58685;SDS011;44465;53.206;-6.106;2023-06-04T13:19:06;9.45;;;3.40;;
58685;SDS011;44465;53.206;-6.106;2023-06-04T13:21:32;6.85;;;2.85;;
58685;SDS011;44465;53.206;-6.106;2023-06-04T13:23:58;7.38;;;3.20;;
58685;SDS011;44465;53.206;-6.106;2023-06-04T13:26:24;10.68;;;2.88;;
58685;SDS011;44465;53.206;-6.106;2023-06-04T13:28:50;6.18;;;2.70;;
58685;SDS011;44465;53.206;-6.106;2023-06-04T13:31:16;8.23;;;3.05;;
58685;SDS011;44465;53.206;-6.106;2023-06-04T13:33:41;9.32;;;3.08;;
58685;SDS011;44465;53.206;-6.106;2023-06-04T13:36:07;6.68;;;2.88;;
58685;SDS011;44465;53.206;-6.106;2023-06-04T13:38:32;7.47;;;2.63;;
58685;SDS011;44465;53.206;-6.106;2023-06-04T13:40:58;9.45;;;3.10;;
58685;SDS011;44465;53.206;-6.106;2023-06-04T13:43:24;5.95;;;2.53;;
58685;SDS011;44465;53.206;-6.106;2023-06-04T13:45:49;8.20;;;2.58;;
58685;SDS011;44465;53.206;-6.106;2023-06-04T13:48:15;9.98;;;3.30;;
58685;SDS011;44465;53.206;-6.106;2023-06-04T13:50:41;5.63;;;2.78;;
58685;SDS011;44465;53.206;-6.106;2023-06-04T13:53:10;9.57;;;3.33;;
58685;SDS011;44465;53.206;-6.106;2023-06-04T13:55:36;7.05;;;3.15;;
58685;SDS011;44465;53.206;-6.106;2023-06-04T13:58:01;9.77;;;2.90;;
58685;SDS011;44465;53.206;-6.106;2023-06-04T14:00:27;11.60;;;3.13;;
58685;SDS011;44465;53.206;-6.106;2023-06-04T14:02:55;5.43;;;2.67;;
58685;SDS011;44465;53.206;-6.106;2023-06-04T14:05:21;9.07;;;2.75;;
58685;SDS011;44465;53.206;-6.106;2023-06-04T14:07:48;9.65;;;3.20;;
58685;SDS011;44465;53.206;-6.106;2023-06-04T14:10:14;9.82;;;3.10;;
58685;SDS011;44465;53.206;-6.106;2023-06-04T14:12:40;7.05;;;2.78;;
58685;SDS011;44465;53.206;-6.106;2023-06-04T14:15:06;6.35;;;2.60;;
58685;SDS011;44465;53.206;-6.106;2023-06-04T14:17:37;7.15;;;3.05;;
58685;SDS011;44465;53.206;-6.106;2023-06-04T14:20:06;5.50;;;2.92;;
58685;SDS011;44465;53.206;-6.106;2023-06-04T14:22:41;9.95;;;2.92;;
58685;SDS011;44465;53.206;-6.106;2023-06-04T14:25:07;7.25;;;2.38;;
58685;SDS011;44465;53.206;-6.106;2023-06-04T14:27:33;7.72;;;2.45;;
58685;SDS011;44465;53.206;-6.106;2023-06-04T14:30:00;7.05;;;2.50;;
58685;SDS011;44465;53.206;-6.106;2023-06-04T14:32:27;6.47;;;2.83;;
58685;SDS011;44465;53.206;-6.106;2023-06-04T14:34:52;6.97;;;2.60;;
58685;SDS011;44465;53.206;-6.106;2023-06-04T14:37:18;5.85;;;2.40;;
58685;SDS011;44465;53.206;-6.106;2023-06-04T14:39:44;6.60;;;2.42;;
58685;SDS011;44465;53.206;-6.106;2023-06-04T14:42:10;4.75;;;2.67;;
58685;SDS011;44465;53.206;-6.106;2023-06-04T14:44:36;5.00;;;2.63;;
58685;SDS011;44465;53.206;-6.106;2023-06-04T14:47:01;5.18;;;2.00;;
58685;SDS011;44465;53.206;-6.106;2023-06-04T14:49:27;4.13;;;2.00;;